sensor_id;sensor_type;location;lat;lon;timestamp;pressure;altitude;pressure_sealevel;temperature;humidity
32638;BME280;19045;52.268;10.506;2023-01-27T00:02:14;101281.13;;;0.96;100.00
32638;BME280;19045;52.268;10.506;2023-01-27T00:04:42;101278.81;;;0.93;100.00
32638;BME280;19045;52.268;10.506;2023-01-27T00:07:08;101277.84;;;0.94;100.00
32638;BME280;19045;52.268;10.506;2023-01-27T00:09:35;101272.06;;;0.91;100.00
32638;BME280;19045;52.268;10.506;2023-01-27T00:12:02;101276.84;;;0.95;100.00
32638;BME280;19045;52.268;10.506;2023-01-27T00:14:47;101272.63;;;1.09;100.00
32638;BME280;19045;52.268;10.506;2023-01-27T00:17:14;101267.22;;;1.02;100.00
32638;BME280;19045;52.268;10.506;2023-01-27T00:19:40;101273.78;;;1.07;100.00
32638;BME280;19045;52.268;10.506;2023-01-27T00:22:08;101269.19;;;1.00;100.00
32638;BME280;19045;52.268;10.506;2023-01-27T00:24:52;101270.84;;;1.01;100.00
32638;BME280;19045;52.268;10.506;2023-01-27T00:27:19;101265.09;;;0.98;100.00
32638;BME280;19045;52.268;10.506;2023-01-27T00:29:47;101268.13;;;1.10;100.00
32638;BME280;19045;52.268;10.506;2023-01-27T00:32:13;101264.50;;;1.11;100.00
32638;BME280;19045;52.268;10.506;2023-01-27T00:34:58;101260.75;;;1.05;100.00
32638;BME280;19045;52.268;10.506;2023-01-27T00:37:24;101269.50;;;1.06;100.00
32638;BME280;19045;52.268;10.506;2023-01-27T00:39:51;101266.56;;;1.00;100.00
32638;BME280;19045;52.268;10.506;2023-01-27T00:42:18;101267.34;;;1.09;100.00
32638;BME280;19045;52.268;10.506;2023-01-27T00:44:44;101269.69;;;1.04;100.00
32638;BME280;19045;52.268;10.506;2023-01-27T00:47:32;101270.16;;;1.08;100.00
32638;BME280;19045;52.268;10.506;2023-01-27T00:49:59;101258.56;;;1.09;100.00
32638;BME280;19045;52.268;10.506;2023-01-27T00:52:25;101268.50;;;1.07;100.00
32638;BME280;19045;52.268;10.506;2023-01-27T00:54:52;101267.22;;;1.02;100.00
32638;BME280;19045;52.268;10.506;2023-01-27T00:57:19;101272.66;;;1.01;100.00
32638;BME280;19045;52.268;10.506;2023-01-27T00:59:45;101280.25;;;1.04;100.00
32638;BME280;19045;52.268;10.506;2023-01-27T01:02:12;101284.25;;;1.00;100.00
32638;BME280;19045;52.268;10.506;2023-01-27T01:04:41;101277.97;;;1.01;100.00
32638;BME280;19045;52.268;10.506;2023-01-27T01:07:10;101276.97;;;1.02;100.00
32638;BME280;19045;52.268;10.506;2023-01-27T01:09:36;101283.22;;;1.09;100.00
32638;BME280;19045;52.268;10.506;2023-01-27T01:12:03;101275.75;;;1.13;100.00
32638;BME280;19045;52.268;10.506;2023-01-27T01:14:30;101282.31;;;1.17;100.00
32638;BME280;19045;52.268;10.506;2023-01-27T01:16:56;101288.28;;;1.19;100.00
32638;BME280;19045;52.268;10.506;2023-01-27T01:19:23;101287.13;;;1.13;100.00
32638;BME280;19045;52.268;10.506;2023-01-27T01:21:51;101286.66;;;1.10;100.00
32638;BME280;19045;52.268;10.506;2023-01-27T01:24:17;101286.66;;;1.10;100.00
32638;BME280;19045;52.268;10.506;2023-01-27T01:26:44;101288.28;;;1.19;100.00
32638;BME280;19045;52.268;10.506;2023-01-27T01:29:11;101298.50;;;1.22;100.00
32638;BME280;19045;52.268;10.506;2023-01-27T01:31:38;101287.81;;;1.15;100.00
32638;BME280;19045;52.268;10.506;2023-01-27T01:34:06;101291.22;;;1.24;100.00
32638;BME280;19045;52.268;10.506;2023-01-27T01:36:32;101295.56;;;1.17;100.00
32638;BME280;19045;52.268;10.506;2023-01-27T01:39:00;101294.56;;;1.18;100.00
32638;BME280;19045;52.268;10.506;2023-01-27T01:41:28;101300.00;;;1.16;100.00
32638;BME280;19045;52.268;10.506;2023-01-27T01:43:56;101297.22;;;1.18;100.00
32638;BME280;19045;52.268;10.506;2023-01-27T01:46:24;101298.88;;;1.19;100.00
32638;BME280;19045;52.268;10.506;2023-01-27T01:48:52;101297.81;;;1.28;100.00
32638;BME280;19045;52.268;10.506;2023-01-27T01:51:22;101294.19;;;1.29;100.00
32638;BME280;19045;52.268;10.506;2023-01-27T01:53:54;101298.44;;;1.30;100.00
32638;BME280;19045;52.268;10.506;2023-01-27T01:56:28;101306.03;;;1.33;100.00
32638;BME280;19045;52.268;10.506;2023-01-27T01:59:01;101305.13;;;1.26;100.00
32638;BME280;19045;52.268;10.506;2023-01-27T02:01:29;101304.78;;;1.21;100.00
32638;BME280;19045;52.268;10.506;2023-01-27T02:03:58;101308.22;;;1.29;100.00
32638;BME280;19045;52.268;10.506;2023-01-27T02:06:26;101314.16;;;1.31;100.00
32638;BME280;19045;52.268;10.506;2023-01-27T02:08:53;101310.53;;;1.32;100.00
32638;BME280;19045;52.268;10.506;2023-01-27T02:11:20;101312.00;;;1.35;100.00
32638;BME280;19045;52.268;10.506;2023-01-27T02:13:48;101310.66;;;1.39;100.00
32638;BME280;19045;52.268;10.506;2023-01-27T02:16:15;101317.94;;;1.37;100.00
32638;BME280;19045;52.268;10.506;2023-01-27T02:18:41;101312.81;;;1.35;100.00
32638;BME280;19045;52.268;10.506;2023-01-27T02:21:09;101309.28;;;1.43;100.00
32638;BME280;19045;52.268;10.506;2023-01-27T02:23:45;101319.50;;;1.46;100.00
32638;BME280;19045;52.268;10.506;2023-01-27T02:26:16;101318.16;;;1.50;100.00
32638;BME280;19045;52.268;10.506;2023-01-27T02:28:44;101319.63;;;1.52;100.00
32638;BME280;19045;52.268;10.506;2023-01-27T02:31:11;101314.88;;;1.48;100.00
32638;BME280;19045;52.268;10.506;2023-01-27T02:33:38;101319.47;;;1.54;100.00
32638;BME280;19045;52.268;10.506;2023-01-27T02:36:07;101320.78;;;1.58;100.00
32638;BME280;19045;52.268;10.506;2023-01-27T02:38:37;101322.44;;;1.59;100.00
32638;BME280;19045;52.268;10.506;2023-01-27T02:41:09;101324.84;;;1.69;100.00
32638;BME280;19045;52.268;10.506;2023-01-27T02:43:38;101311.38;;;1.55;100.00
32638;BME280;19045;52.268;10.506;2023-01-27T02:46:05;101312.28;;;1.63;100.00
32638;BME280;19045;52.268;10.506;2023-01-27T02:48:31;101314.28;;;1.61;100.00
32638;BME280;19045;52.268;10.506;2023-01-27T02:50:58;101315.41;;;1.66;100.00
32638;BME280;19045;52.268;10.506;2023-01-27T02:53:25;101313.41;;;1.68;100.00
32638;BME280;19045;52.268;10.506;2023-01-27T02:55:51;101316.06;;;1.68;100.00
32638;BME280;19045;52.268;10.506;2023-01-27T02:58:18;101319.13;;;1.57;100.00
32638;BME280;19045;52.268;10.506;2023-01-27T03:00:47;101319.91;;;1.66;100.00
32638;BME280;19045;52.268;10.506;2023-01-27T03:03:13;101325.59;;;1.77;100.00
32638;BME280;19045;52.268;10.506;2023-01-27T03:05:40;101322.66;;;1.72;100.00
32638;BME280;19045;52.268;10.506;2023-01-27T03:08:07;101311.81;;;1.82;100.00
32638;BME280;19045;52.268;10.506;2023-01-27T03:10:33;101331.88;;;1.76;100.00
32638;BME280;19045;52.268;10.506;2023-01-27T03:13:00;101336.28;;;1.84;100.00
32638;BME280;19045;52.268;10.506;2023-01-27T03:15:27;101328.00;;;1.87;100.00
32638;BME280;19045;52.268;10.506;2023-01-27T03:18:14;101333.00;;;1.82;100.00
32638;BME280;19045;52.268;10.506;2023-01-27T03:20:43;101331.09;;;1.90;100.00
32638;BME280;19045;52.268;10.506;2023-01-27T03:23:11;101339.13;;;1.82;100.00
32638;BME280;19045;52.268;10.506;2023-01-27T03:25:41;101341.91;;;1.89;100.00
32638;BME280;19045;52.268;10.506;2023-01-27T03:28:08;101337.22;;;1.91;100.00
32638;BME280;19045;52.268;10.506;2023-01-27T03:30:35;101333.41;;;1.93;100.00
32638;BME280;19045;52.268;10.506;2023-01-27T03:33:02;101337.03;;;1.92;100.00
32638;BME280;19045;52.268;10.506;2023-01-27T03:35:33;101337.41;;;1.89;100.00
32638;BME280;19045;52.268;10.506;2023-01-27T03:38:04;101341.44;;;1.85;100.00
32638;BME280;19045;52.268;10.506;2023-01-27T03:40:51;101341.06;;;1.88;100.00
32638;BME280;19045;52.268;10.506;2023-01-27T03:43:35;101351.66;;;1.88;100.00
32638;BME280;19045;52.268;10.506;2023-01-27T03:46:20;101352.25;;;1.98;100.00
32638;BME280;19045;52.268;10.506;2023-01-27T03:48:48;101343.47;;;1.98;100.00
32638;BME280;19045;52.268;10.506;2023-01-27T03:51:18;101357.97;;;1.87;100.00
32638;BME280;19045;52.268;10.506;2023-01-27T03:53:46;101359.88;;;1.93;100.00
32638;BME280;19045;52.268;10.506;2023-01-27T03:56:14;101363.00;;;1.97;100.00
32638;BME280;19045;52.268;10.506;2023-01-27T03:58:42;101364.19;;;1.94;100.00
32638;BME280;19045;52.268;10.506;2023-01-27T04:01:12;101360.72;;;1.94;100.00
32638;BME280;19045;52.268;10.506;2023-01-27T04:03:40;101361.25;;;1.89;100.00
32638;BME280;19045;52.268;10.506;2023-01-27T04:06:27;101359.13;;;1.85;100.00
32638;BME280;19045;52.268;10.506;2023-01-27T04:09:12;101359.97;;;1.85;100.00
32638;BME280;19045;52.268;10.506;2023-01-27T04:11:43;101357.13;;;1.87;100.00
32638;BME280;19045;52.268;10.506;2023-01-27T04:14:24;101361.94;;;1.83;100.00
32638;BME280;19045;52.268;10.506;2023-01-27T04:16:52;101351.56;;;1.82;100.00
32638;BME280;19045;52.268;10.506;2023-01-27T04:19:19;101354.84;;;1.84;100.00
32638;BME280;19045;52.268;10.506;2023-01-27T04:21:47;101354.31;;;1.88;100.00
32638;BME280;19045;52.268;10.506;2023-01-27T04:24:15;101361.44;;;1.88;100.00
32638;BME280;19045;52.268;10.506;2023-01-27T04:26:50;101360.75;;;1.86;100.00
32638;BME280;19045;52.268;10.506;2023-01-27T04:29:17;101368.91;;;1.84;100.00
32638;BME280;19045;52.268;10.506;2023-01-27T04:31:44;101365.44;;;1.84;100.00
32638;BME280;19045;52.268;10.506;2023-01-27T04:34:11;101364.25;;;1.86;100.00
32638;BME280;19045;52.268;10.506;2023-01-27T04:36:38;101366.06;;;1.86;100.00
32638;BME280;19045;52.268;10.506;2023-01-27T04:39:07;101370.56;;;1.85;100.00
32638;BME280;19045;52.268;10.506;2023-01-27T04:41:34;101366.72;;;1.88;100.00
32638;BME280;19045;52.268;10.506;2023-01-27T04:44:02;101369.38;;;1.88;100.00
32638;BME280;19045;52.268;10.506;2023-01-27T04:46:29;101373.84;;;1.87;100.00
32638;BME280;19045;52.268;10.506;2023-01-27T04:48:56;101375.97;;;1.92;100.00
32638;BME280;19045;52.268;10.506;2023-01-27T04:51:23;101382.75;;;1.94;100.00
32638;BME280;19045;52.268;10.506;2023-01-27T04:53:50;101389.03;;;1.93;100.00
32638;BME280;19045;52.268;10.506;2023-01-27T04:56:23;101385.88;;;1.98;100.00
32638;BME280;19045;52.268;10.506;2023-01-27T04:58:51;101391.03;;;1.91;100.00
32638;BME280;19045;52.268;10.506;2023-01-27T05:01:18;101401.44;;;1.93;100.00
32638;BME280;19045;52.268;10.506;2023-01-27T05:03:45;101393.34;;;1.94;100.00
32638;BME280;19045;52.268;10.506;2023-01-27T05:06:12;101395.00;;;1.95;100.00
32638;BME280;19045;52.268;10.506;2023-01-27T05:08:38;101400.28;;;1.95;100.00
32638;BME280;19045;52.268;10.506;2023-01-27T05:11:05;101399.09;;;1.98;100.00
32638;BME280;19045;52.268;10.506;2023-01-27T05:13:34;101400.28;;;1.95;100.00
32638;BME280;19045;52.268;10.506;2023-01-27T05:16:10;101401.44;;;1.93;100.00
32638;BME280;19045;52.268;10.506;2023-01-27T05:18:41;101397.97;;;1.92;100.00
32638;BME280;19045;52.268;10.506;2023-01-27T05:21:11;101409.41;;;1.93;100.00
32638;BME280;19045;52.268;10.506;2023-01-27T05:23:38;101406.59;;;1.94;100.00
32638;BME280;19045;52.268;10.506;2023-01-27T05:26:07;101411.69;;;1.96;100.00
32638;BME280;19045;52.268;10.506;2023-01-27T05:28:37;101409.50;;;1.99;100.00
32638;BME280;19045;52.268;10.506;2023-01-27T05:31:07;101416.19;;;1.95;100.00
32638;BME280;19045;52.268;10.506;2023-01-27T05:33:34;101413.19;;;1.98;100.00
32638;BME280;19045;52.268;10.506;2023-01-27T05:36:02;101420.94;;;2.00;100.00
32638;BME280;19045;52.268;10.506;2023-01-27T05:38:29;101430.47;;;2.09;100.00
32638;BME280;19045;52.268;10.506;2023-01-27T05:40:57;101426.84;;;2.10;100.00
32638;BME280;19045;52.268;10.506;2023-01-27T05:43:28;101425.28;;;2.16;100.00
32638;BME280;19045;52.268;10.506;2023-01-27T05:46:04;101420.19;;;2.14;100.00
32638;BME280;19045;52.268;10.506;2023-01-27T05:48:33;101429.47;;;2.10;100.00
32638;BME280;19045;52.268;10.506;2023-01-27T05:51:00;101426.94;;;2.17;100.00
32638;BME280;19045;52.268;10.506;2023-01-27T05:53:26;101429.00;;;2.29;100.00
32638;BME280;19045;52.268;10.506;2023-01-27T05:55:53;101424.25;;;2.25;100.00
32638;BME280;19045;52.268;10.506;2023-01-27T05:58:20;101423.06;;;2.27;100.00
32638;BME280;19045;52.268;10.506;2023-01-27T06:00:47;101429.47;;;2.33;100.00
32638;BME280;19045;52.268;10.506;2023-01-27T06:03:16;101432.81;;;2.27;100.00
32638;BME280;19045;52.268;10.506;2023-01-27T06:05:53;101433.59;;;2.35;100.00
32638;BME280;19045;52.268;10.506;2023-01-27T06:08:21;101433.66;;;2.27;100.00
32638;BME280;19045;52.268;10.506;2023-01-27T06:10:48;101431.75;;;2.36;100.00
32638;BME280;19045;52.268;10.506;2023-01-27T06:13:15;101438.72;;;2.37;100.00
32638;BME280;19045;52.268;10.506;2023-01-27T06:15:42;101435.16;;;2.44;100.00
32638;BME280;19045;52.268;10.506;2023-01-27T06:18:10;101436.38;;;2.42;100.00
32638;BME280;19045;52.268;10.506;2023-01-27T06:20:38;101446.13;;;2.41;100.00
32638;BME280;19045;52.268;10.506;2023-01-27T06:23:05;101442.22;;;2.52;100.00
32638;BME280;19045;52.268;10.506;2023-01-27T06:25:35;101449.72;;;2.48;100.00
32638;BME280;19045;52.268;10.506;2023-01-27T06:28:04;101447.19;;;2.55;100.00
32638;BME280;19045;52.268;10.506;2023-01-27T06:30:32;101439.56;;;2.52;100.00
32638;BME280;19045;52.268;10.506;2023-01-27T06:32:59;101448.53;;;2.51;100.00
32638;BME280;19045;52.268;10.506;2023-01-27T06:35:26;101453.75;;;2.59;100.00
32638;BME280;19045;52.268;10.506;2023-01-27T06:37:53;101447.00;;;2.56;100.00
32638;BME280;19045;52.268;10.506;2023-01-27T06:40:23;101436.00;;;2.59;100.00
32638;BME280;19045;52.268;10.506;2023-01-27T06:42:50;101444.28;;;2.65;100.00
32638;BME280;19045;52.268;10.506;2023-01-27T06:45:16;101444.34;;;2.56;100.00
32638;BME280;19045;52.268;10.506;2023-01-27T06:47:43;101442.78;;;2.62;100.00
32638;BME280;19045;52.268;10.506;2023-01-27T06:50:10;101450.03;;;2.68;100.00
32638;BME280;19045;52.268;10.506;2023-01-27T06:52:37;101443.25;;;2.66;100.00
32638;BME280;19045;52.268;10.506;2023-01-27T06:55:06;101451.66;;;2.69;100.00
32638;BME280;19045;52.268;10.506;2023-01-27T06:57:32;101456.63;;;2.72;100.00
32638;BME280;19045;52.268;10.506;2023-01-27T06:59:59;101456.44;;;2.74;100.00
32638;BME280;19045;52.268;10.506;2023-01-27T07:02:25;101462.28;;;2.69;100.00
32638;BME280;19045;52.268;10.506;2023-01-27T07:04:52;101467.16;;;2.80;100.00
32638;BME280;19045;52.268;10.506;2023-01-27T07:07:19;101469.19;;;2.78;100.00
32638;BME280;19045;52.268;10.506;2023-01-27T07:09:45;101472.81;;;2.77;100.00
32638;BME280;19045;52.268;10.506;2023-01-27T07:12:13;101474.13;;;2.81;100.00
32638;BME280;19045;52.268;10.506;2023-01-27T07:14:40;101475.75;;;2.82;100.00
32638;BME280;19045;52.268;10.506;2023-01-27T07:17:07;101479.44;;;2.81;100.00
32638;BME280;19045;52.268;10.506;2023-01-27T07:19:33;101477.25;;;2.85;100.00
32638;BME280;19045;52.268;10.506;2023-01-27T07:22:00;101476.41;;;2.84;100.00
32638;BME280;19045;52.268;10.506;2023-01-27T07:24:26;101479.44;;;2.81;100.00
32638;BME280;19045;52.268;10.506;2023-01-27T07:26:53;101490.50;;;2.85;100.00
32638;BME280;19045;52.268;10.506;2023-01-27T07:29:21;101489.75;;;2.76;100.00
32638;BME280;19045;52.268;10.506;2023-01-27T07:31:47;101496.03;;;2.75;100.00
32638;BME280;19045;52.268;10.506;2023-01-27T07:34:14;101491.47;;;2.69;100.00
32638;BME280;19045;52.268;10.506;2023-01-27T07:36:41;101499.63;;;2.68;100.00
32638;BME280;19045;52.268;10.506;2023-01-27T07:39:07;101496.75;;;2.69;100.00
32638;BME280;19045;52.268;10.506;2023-01-27T07:41:34;101509.19;;;2.69;100.00
32638;BME280;19045;52.268;10.506;2023-01-27T07:44:00;101513.22;;;2.65;100.00
32638;BME280;19045;52.268;10.506;2023-01-27T07:46:29;101508.94;;;2.64;100.00
32638;BME280;19045;52.268;10.506;2023-01-27T07:48:55;101513.03;;;2.66;100.00
32638;BME280;19045;52.268;10.506;2023-01-27T07:51:22;101518.06;;;2.61;100.00
32638;BME280;19045;52.268;10.506;2023-01-27T07:53:49;101517.41;;;2.59;100.00
32638;BME280;19045;52.268;10.506;2023-01-27T07:56:16;101523.00;;;2.64;100.00
32638;BME280;19045;52.268;10.506;2023-01-27T07:58:42;101520.00;;;2.67;100.00
32638;BME280;19045;52.268;10.506;2023-01-27T08:01:12;101526.31;;;2.66;100.00
32638;BME280;19045;52.268;10.506;2023-01-27T08:04:18;101530.88;;;2.72;100.00
32638;BME280;19045;52.268;10.506;2023-01-27T08:06:30;101535.19;;;2.73;100.00
32638;BME280;19045;52.268;10.506;2023-01-27T08:08:57;101532.84;;;2.78;100.00
32638;BME280;19045;52.268;10.506;2023-01-27T08:11:24;101540.97;;;2.77;100.00
32638;BME280;19045;52.268;10.506;2023-01-27T08:13:54;101545.44;;;2.76;100.00
32638;BME280;19045;52.268;10.506;2023-01-27T08:16:21;101547.09;;;2.77;100.00
32638;BME280;19045;52.268;10.506;2023-01-27T08:18:48;101548.78;;;2.78;100.00
32638;BME280;19045;52.268;10.506;2023-01-27T08:38:27;101568.13;;;2.79;100.00
32638;BME280;19045;52.268;10.506;2023-01-27T08:40:55;101568.81;;;2.81;100.00
32638;BME280;19045;52.268;10.506;2023-01-27T08:43:22;101575.56;;;2.83;100.00
32638;BME280;19045;52.268;10.506;2023-01-27T08:45:50;101577.50;;;2.89;100.00
32638;BME280;19045;52.268;10.506;2023-01-27T08:48:17;101566.53;;;2.92;100.00
32638;BME280;19045;52.268;10.506;2023-01-27T08:50:44;101569.19;;;2.92;100.00
32638;BME280;19045;52.268;10.506;2023-01-27T08:53:10;101577.81;;;2.94;100.00
32638;BME280;19045;52.268;10.506;2023-01-27T08:55:38;101581.63;;;2.92;100.00
32638;BME280;19045;52.268;10.506;2023-01-27T08:58:05;101582.09;;;2.95;100.00
32638;BME280;19045;52.268;10.506;2023-01-27T09:00:32;101590.25;;;2.94;100.00
32638;BME280;19045;52.268;10.506;2023-01-27T09:03:01;101588.22;;;2.96;100.00
32638;BME280;19045;52.268;10.506;2023-01-27T09:05:28;101592.72;;;2.95;100.00
32638;BME280;19045;52.268;10.506;2023-01-27T09:07:54;101598.03;;;2.95;100.00
32638;BME280;19045;52.268;10.506;2023-01-27T09:10:21;101592.56;;;2.97;100.00
32638;BME280;19045;52.268;10.506;2023-01-27T09:12:49;101602.97;;;2.98;100.00
32638;BME280;19045;52.268;10.506;2023-01-27T09:15:15;101594.13;;;3.06;100.00
32638;BME280;19045;52.268;10.506;2023-01-27T09:17:42;101599.44;;;3.06;100.00
32638;BME280;19045;52.268;10.506;2023-01-27T09:20:10;101608.06;;;3.08;100.00
32638;BME280;19045;52.268;10.506;2023-01-27T09:22:37;101605.28;;;3.01;100.00
32638;BME280;19045;52.268;10.506;2023-01-27T09:25:06;101618.91;;;2.98;100.00
32638;BME280;19045;52.268;10.506;2023-01-27T09:27:33;101617.44;;;2.96;100.00
32638;BME280;19045;52.268;10.506;2023-01-27T09:30:01;101618.91;;;2.98;100.00
32638;BME280;19045;52.268;10.506;2023-01-27T09:32:27;101619.56;;;3.00;100.00
32638;BME280;19045;52.268;10.506;2023-01-27T09:34:54;101628.53;;;2.99;100.00
32638;BME280;19045;52.268;10.506;2023-01-27T09:37:21;101628.53;;;2.99;100.00
32638;BME280;19045;52.268;10.506;2023-01-27T09:39:50;101622.22;;;3.00;100.00
32638;BME280;19045;52.268;10.506;2023-01-27T09:42:42;101629.06;;;2.95;100.00
32638;BME280;19045;52.268;10.506;2023-01-27T09:45:32;101629.06;;;2.95;100.00
32638;BME280;19045;52.268;10.506;2023-01-27T09:48:26;101630.59;;;2.89;100.00
32638;BME280;19045;52.268;10.506;2023-01-27T09:51:01;101628.88;;;2.96;100.00
32638;BME280;19045;52.268;10.506;2023-01-27T09:53:44;101630.19;;;3.00;100.00
32638;BME280;19045;52.268;10.506;2023-01-27T09:56:21;101628.16;;;3.02;100.00
32638;BME280;19045;52.268;10.506;2023-01-27T09:59:04;101622.84;;;3.02;100.00
32638;BME280;19045;52.268;10.506;2023-01-27T10:01:43;101630.44;;;3.05;100.00
32638;BME280;19045;52.268;10.506;2023-01-27T10:04:21;101629.97;;;3.02;100.00
32638;BME280;19045;52.268;10.506;2023-01-27T10:07:02;101636.47;;;2.99;
32638;BME280;19045;52.268;10.506;2023-01-27T10:10:09;101632.53;;;2.95;100.00
32638;BME280;19045;52.268;10.506;2023-01-27T10:12:50;101638.66;;;2.96;100.00
32638;BME280;19045;52.268;10.506;2023-01-27T10:15:29;101634.19;;;2.96;100.00
32638;BME280;19045;52.268;10.506;2023-01-27T10:18:10;101621.38;;;3.00;100.00
32638;BME280;19045;52.268;10.506;2023-01-27T10:20:47;101624.19;;;2.98;100.00
32638;BME280;19045;52.268;10.506;2023-01-27T10:23:30;101624.66;;;3.02;100.00
32638;BME280;19045;52.268;10.506;2023-01-27T10:26:07;101624.88;;;3.00;100.00
32638;BME280;19045;52.268;10.506;2023-01-27T10:28:36;101624.19;;;2.98;100.00
32638;BME280;19045;52.268;10.506;2023-01-27T10:31:08;101620.56;;;2.99;100.00
32638;BME280;19045;52.268;10.506;2023-01-27T10:33:47;101621.84;;;3.03;100.00
32638;BME280;19045;52.268;10.506;2023-01-27T10:36:23;101627.31;;;3.02;100.00
32638;BME280;19045;52.268;10.506;2023-01-27T10:38:59;101621.50;;;3.06;100.00
32638;BME280;19045;52.268;10.506;2023-01-27T10:41:32;101629.19;;;3.01;100.00
32638;BME280;19045;52.268;10.506;2023-01-27T10:44:15;101623.88;;;3.01;100.00
32638;BME280;19045;52.268;10.506;2023-01-27T10:46:52;101624.63;;;3.10;100.00
32638;BME280;19045;52.268;10.506;2023-01-27T10:49:27;101627.13;;;3.26;100.00
32638;BME280;19045;52.268;10.506;2023-01-27T10:51:59;101621.19;;;3.39;100.00
32638;BME280;19045;52.268;10.506;2023-01-27T10:54:33;101630.81;;;3.40;100.00
32638;BME280;19045;52.268;10.506;2023-01-27T10:57:07;101623.50;;;3.42;100.00
32638;BME280;19045;52.268;10.506;2023-01-27T10:59:41;101628.00;;;3.41;100.00
32638;BME280;19045;52.268;10.506;2023-01-27T11:02:16;101622.69;;;3.41;100.00
32638;BME280;19045;52.268;10.506;2023-01-27T11:04:53;101627.16;;;3.41;100.00
32638;BME280;19045;52.268;10.506;2023-01-27T11:07:23;101622.84;;;3.40;100.00
32638;BME280;19045;52.268;10.506;2023-01-27T11:09:54;101620.56;;;3.37;100.00
32638;BME280;19045;52.268;10.506;2023-01-27T11:12:27;101619.28;;;3.33;100.00
32638;BME280;19045;52.268;10.506;2023-01-27T11:14:55;101616.81;;;3.31;100.00
32638;BME280;19045;52.268;10.506;2023-01-27T11:17:27;101621.81;;;3.26;100.00
32638;BME280;19045;52.268;10.506;2023-01-27T11:20:00;101620.00;;;3.27;100.00
32638;BME280;19045;52.268;10.506;2023-01-27T11:22:35;101617.91;;;3.37;100.00
32638;BME280;19045;52.268;10.506;2023-01-27T11:25:06;101627.81;;;3.43;100.00
32638;BME280;19045;52.268;10.506;2023-01-27T11:27:54;101618.06;;;3.35;100.00
32638;BME280;19045;52.268;10.506;2023-01-27T11:30:24;101624.41;;;3.34;100.00
32638;BME280;19045;52.268;10.506;2023-01-27T11:32:57;101620.25;;;3.32;100.00
32638;BME280;19045;52.268;10.506;2023-01-27T11:35:27;101621.00;;;3.26;100.00
32638;BME280;19045;52.268;10.506;2023-01-27T11:37:54;101626.38;;;3.18;100.00
32638;BME280;19045;52.268;10.506;2023-01-27T11:40:31;101635.06;;;3.11;100.00
32638;BME280;19045;52.268;10.506;2023-01-27T11:42:58;101627.81;;;3.05;100.00
32638;BME280;19045;52.268;10.506;2023-01-27T11:45:26;101621.50;;;3.06;100.00
32638;BME280;19045;52.268;10.506;2023-01-27T11:47:58;101634.66;;;3.00;100.00
32638;BME280;19045;52.268;10.506;2023-01-27T11:50:29;101645.28;;;3.00;100.00
32638;BME280;19045;52.268;10.506;2023-01-27T11:53:05;101637.78;;;3.03;100.00
32638;BME280;19045;52.268;10.506;2023-01-27T11:55:37;101639.31;;;2.98;100.00
32638;BME280;19045;52.268;10.506;2023-01-27T11:58:12;101633.19;;;2.97;100.00
32638;BME280;19045;52.268;10.506;2023-01-27T12:00:42;101642.78;;;2.98;100.00
32638;BME280;19045;52.268;10.506;2023-01-27T12:03:17;101634.38;;;2.95;100.00
32638;BME280;19045;52.268;10.506;2023-01-27T12:05:49;101637.34;;;2.92;100.00
32638;BME280;19045;52.268;10.506;2023-01-27T12:08:37;101630.91;;;2.94;100.00
32638;BME280;19045;52.268;10.506;2023-01-27T12:11:23;101634.53;;;2.93;100.00
32638;BME280;19045;52.268;10.506;2023-01-27T12:13:52;101613.94;;;2.95;100.00
32638;BME280;19045;52.268;10.506;2023-01-27T12:16:20;101629.41;;;2.92;100.00
32638;BME280;19045;52.268;10.506;2023-01-27T12:18:53;101621.09;;;2.95;100.00
32638;BME280;19045;52.268;10.506;2023-01-27T12:21:33;101618.47;;;2.95;100.00
32638;BME280;19045;52.268;10.506;2023-01-27T12:24:01;101612.69;;;2.91;100.00
32638;BME280;19045;52.268;10.506;2023-01-27T12:26:32;101625.28;;;2.89;100.00
32638;BME280;19045;52.268;10.506;2023-01-27T12:29:04;101619.34;;;2.87;100.00
32638;BME280;19045;52.268;10.506;2023-01-27T12:31:42;101616.31;;;2.90;100.00
32638;BME280;19045;52.268;10.506;2023-01-27T12:34:20;101600.69;;;2.95;100.00
32638;BME280;19045;52.268;10.506;2023-01-27T12:36:51;101608.16;;;2.92;100.00
32638;BME280;19045;52.268;10.506;2023-01-27T12:39:41;101609.00;;;2.92;100.00
32638;BME280;19045;52.268;10.506;2023-01-27T12:42:32;101611.66;;;2.92;100.00
32638;BME280;19045;52.268;10.506;2023-01-27T12:44:59;101606.66;;;2.97;100.00
32638;BME280;19045;52.268;10.506;2023-01-27T12:47:27;101606.66;;;2.97;100.00
32638;BME280;19045;52.268;10.506;2023-01-27T12:50:18;101602.34;;;2.96;100.00
32638;BME280;19045;52.268;10.506;2023-01-27T12:52:53;101609.72;;;2.86;100.00
32638;BME280;19045;52.268;10.506;2023-01-27T12:55:38;101612.09;;;2.81;100.00
32638;BME280;19045;52.268;10.506;2023-01-27T12:58:27;101600.88;;;2.71;100.00
32638;BME280;19045;52.268;10.506;2023-01-27T13:00:54;101597.03;;;2.74;100.00
32638;BME280;19045;52.268;10.506;2023-01-27T13:03:22;101602.59;;;2.64;100.00
32638;BME280;19045;52.268;10.506;2023-01-27T13:05:52;101597.44;;;2.63;100.00
32638;BME280;19045;52.268;10.506;2023-01-27T13:08:23;101595.97;;;2.60;100.00
32638;BME280;19045;52.268;10.506;2023-01-27T13:10:53;101603.41;;;2.65;100.00
32638;BME280;19045;52.268;10.506;2023-01-27T13:13:23;101605.88;;;2.66;100.00
32638;BME280;19045;52.268;10.506;2023-01-27T13:15:51;101598.94;;;2.65;100.00